createdAt,value
2017-10-07T00:00:19.518Z,11.01
2017-10-07T00:02:47.670Z,11.08
2017-10-07T00:05:15.275Z,11.27
2017-10-07T00:07:43.570Z,11.28
2017-10-07T00:10:11.522Z,11.21
2017-10-07T00:12:39.970Z,11.27
2017-10-07T00:15:08.024Z,11.29
2017-10-07T00:17:36.296Z,11.25
2017-10-07T00:20:04.877Z,11.26
2017-10-07T00:22:32.763Z,11.22
2017-10-07T00:25:01.105Z,11.19
2017-10-07T00:27:29.098Z,11.12
2017-10-07T00:29:57.367Z,11.05
2017-10-07T00:32:25.558Z,10.84
2017-10-07T00:34:53.500Z,10.80
2017-10-07T00:37:21.573Z,10.75
2017-10-07T00:39:50.428Z,10.74
2017-10-07T00:42:18.354Z,10.79
2017-10-07T00:44:46.418Z,10.82
2017-10-07T00:47:14.632Z,10.87
2017-10-07T00:49:44.463Z,10.87
2017-10-07T00:52:12.836Z,10.92
2017-10-07T00:54:40.854Z,10.92
2017-10-07T00:57:08.695Z,10.95
2017-10-07T00:59:36.794Z,10.97
2017-10-07T01:02:05.062Z,10.89
2017-10-07T01:04:33.021Z,10.81
2017-10-07T01:07:01.126Z,10.68
2017-10-07T01:09:29.482Z,10.60
2017-10-07T01:11:57.327Z,10.28
2017-10-07T01:14:25.507Z,10.32
2017-10-07T01:16:54.105Z,10.16
2017-10-07T01:19:22.374Z,10.31
2017-10-07T01:21:50.645Z,10.19
2017-10-07T01:24:18.912Z,10.12
2017-10-07T01:26:47.515Z,10.17
2017-10-07T01:29:15.575Z,10.12
2017-10-07T01:31:44.015Z,10.10
2017-10-07T01:34:12.190Z,10.04
2017-10-07T01:36:39.958Z,9.96
2017-10-07T01:39:08.419Z,10.17
2017-10-07T01:41:36.721Z,10.13
2017-10-07T01:44:04.533Z,10.24
2017-10-07T01:46:32.959Z,10.44
2017-10-07T01:49:00.556Z,10.50
2017-10-07T01:51:28.316Z,10.54
2017-10-07T01:53:56.183Z,10.54
2017-10-07T01:56:24.391Z,10.60
2017-10-07T01:58:52.227Z,10.52
2017-10-07T02:01:20.013Z,10.15
2017-10-07T02:03:48.312Z,10.29
2017-10-07T02:06:16.163Z,9.87
2017-10-07T02:08:44.366Z,9.72
2017-10-07T02:11:12.767Z,9.95
2017-10-07T02:13:40.583Z,9.82
2017-10-07T02:16:08.859Z,10.02
2017-10-07T02:18:36.814Z,9.91
2017-10-07T02:21:04.709Z,9.89
2017-10-07T02:23:33.248Z,9.80
2017-10-07T02:26:01.563Z,9.95
2017-10-07T02:28:29.722Z,9.87
2017-10-07T02:30:58.039Z,9.76
2017-10-07T02:33:26.640Z,9.78
2017-10-07T02:35:54.634Z,9.70
2017-10-07T02:38:23.009Z,9.64
2017-10-07T02:40:50.972Z,9.61
2017-10-07T02:43:19.002Z,9.65
2017-10-07T02:45:47.433Z,9.41
2017-10-07T02:48:15.595Z,9.47
2017-10-07T02:50:43.685Z,9.23
2017-10-07T02:53:12.181Z,9.10
2017-10-07T02:55:39.911Z,9.21
2017-10-07T02:58:07.767Z,9.15
2017-10-07T03:00:36.156Z,9.10
2017-10-07T03:03:04.035Z,9.01
2017-10-07T03:05:31.766Z,9.25
2017-10-07T03:08:00.123Z,9.27
2017-10-07T03:10:28.238Z,9.30
2017-10-07T03:12:56.203Z,9.36
2017-10-07T03:15:24.053Z,9.57
2017-10-07T03:17:51.766Z,9.52
2017-10-07T03:20:20.045Z,9.56
2017-10-07T03:22:48.558Z,9.43
2017-10-07T03:25:16.524Z,9.18
2017-10-07T03:27:44.760Z,9.42
2017-10-07T03:30:12.939Z,9.43
2017-10-07T03:32:41.102Z,9.26
2017-10-07T03:35:08.982Z,9.08
2017-10-07T03:37:37.389Z,9.26
2017-10-07T03:40:05.717Z,9.29
2017-10-07T03:42:33.805Z,9.27
2017-10-07T03:45:02.062Z,9.20
2017-10-07T03:47:30.623Z,9.25
2017-10-07T03:49:58.595Z,9.29
2017-10-07T03:52:26.777Z,9.23
2017-10-07T03:54:55.255Z,9.26
2017-10-07T03:57:23.050Z,9.17
2017-10-07T03:59:51.718Z,9.43
2017-10-07T04:02:20.094Z,9.31
2017-10-07T04:04:48.137Z,9.32
2017-10-07T04:07:16.396Z,9.39
2017-10-07T04:09:44.192Z,9.37
2017-10-07T04:12:11.858Z,9.79
2017-10-07T04:14:40.750Z,9.90
2017-10-07T04:17:09.455Z,9.85
2017-10-07T04:19:37.462Z,10.05
2017-10-07T04:22:06.171Z,9.99
2017-10-07T04:24:34.083Z,9.81
2017-10-07T04:27:02.122Z,9.64
2017-10-07T04:29:30.311Z,10.10
2017-10-07T04:31:58.242Z,10.16
2017-10-07T04:34:26.109Z,10.26
2017-10-07T04:36:54.236Z,10.31
2017-10-07T04:39:22.510Z,10.16
2017-10-07T04:41:50.097Z,10.41
2017-10-07T04:44:17.900Z,10.41
2017-10-07T04:46:45.488Z,10.42
2017-10-07T04:49:13.127Z,10.47
2017-10-07T04:51:41.628Z,10.61
2017-10-07T04:54:09.500Z,10.63
2017-10-07T04:56:37.615Z,10.74
2017-10-07T04:59:05.719Z,10.62
2017-10-07T05:01:33.611Z,10.73
2017-10-07T05:04:02.061Z,10.72
2017-10-07T05:06:30.261Z,10.63
2017-10-07T05:08:58.188Z,10.63
2017-10-07T05:11:25.979Z,10.64
2017-10-07T05:13:53.949Z,10.58
2017-10-07T05:16:21.724Z,10.55
2017-10-07T05:18:50.118Z,10.62
2017-10-07T05:21:18.326Z,10.68
2017-10-07T05:23:46.226Z,10.84
2017-10-07T05:26:14.311Z,10.85
2017-10-07T05:28:42.958Z,10.84
2017-10-07T05:31:10.705Z,10.61
2017-10-07T05:33:39.198Z,10.49
2017-10-07T05:36:07.224Z,10.56
2017-10-07T05:38:35.477Z,10.68
2017-10-07T05:41:03.243Z,10.55
2017-10-07T05:43:31.667Z,10.68
2017-10-07T05:45:59.909Z,10.67
2017-10-07T05:48:27.669Z,10.80
2017-10-07T05:50:55.787Z,10.57
2017-10-07T05:53:23.982Z,10.63
2017-10-07T05:55:53.141Z,10.54
2017-10-07T05:58:21.462Z,10.80
2017-10-07T06:00:49.646Z,10.82
2017-10-07T06:03:17.226Z,11.05
2017-10-07T06:05:45.632Z,10.98
2017-10-07T06:08:13.836Z,10.84
2017-10-07T06:10:41.983Z,10.72
2017-10-07T06:13:10.458Z,10.44
2017-10-07T06:15:38.346Z,10.54
2017-10-07T06:18:05.948Z,10.52
2017-10-07T06:20:33.699Z,10.46
2017-10-07T06:23:01.223Z,10.43
2017-10-07T06:25:28.739Z,10.41
2017-10-07T06:27:56.310Z,10.56
2017-10-07T06:30:23.834Z,10.47
2017-10-07T06:32:51.392Z,10.44
2017-10-07T06:35:19.358Z,10.48
2017-10-07T06:37:46.890Z,10.62
2017-10-07T06:40:14.407Z,10.76
2017-10-07T06:42:42.047Z,10.60
2017-10-07T06:45:09.613Z,10.67
2017-10-07T06:47:37.155Z,10.87
2017-10-07T06:50:05.138Z,11.08
2017-10-07T06:52:32.887Z,11.13
2017-10-07T06:55:00.430Z,11.32
2017-10-07T06:57:28.292Z,11.25
2017-10-07T06:59:56.023Z,11.27
2017-10-07T07:02:23.636Z,11.29
2017-10-07T07:04:51.195Z,11.45
2017-10-07T07:07:18.754Z,11.37
2017-10-07T07:09:46.423Z,11.56
2017-10-07T07:12:14.385Z,11.84
2017-10-07T07:14:41.943Z,11.69
2017-10-07T07:17:09.486Z,12.02
2017-10-07T07:19:37.277Z,11.88
2017-10-07T07:22:04.816Z,12.16
2017-10-07T07:24:32.383Z,12.02
2017-10-07T07:27:01.050Z,12.14
2017-10-07T07:29:28.623Z,12.12
2017-10-07T07:31:56.232Z,12.07
2017-10-07T07:34:23.788Z,12.32
2017-10-07T07:36:51.309Z,12.60
2017-10-07T07:39:18.865Z,12.46
2017-10-07T07:41:46.742Z,12.33
2017-10-07T07:44:14.614Z,12.58
2017-10-07T07:46:42.156Z,12.33
2017-10-07T07:49:09.921Z,12.68
2017-10-07T07:51:37.481Z,12.52
2017-10-07T07:54:05.044Z,12.99
2017-10-07T07:56:32.849Z,13.05
2017-10-07T07:59:00.370Z,12.89
2017-10-07T08:01:27.898Z,13.24
2017-10-07T08:03:56.504Z,13.25
2017-10-07T08:06:24.063Z,13.67
2017-10-07T08:08:51.723Z,13.96
2017-10-07T08:11:19.518Z,14.22
2017-10-07T08:13:47.047Z,14.51
2017-10-07T08:16:14.581Z,15.06
2017-10-07T08:18:42.406Z,15.58
2017-10-07T08:21:09.992Z,15.77
2017-10-07T08:23:37.562Z,16.39
2017-10-07T08:26:05.560Z,15.55
2017-10-07T08:28:33.128Z,14.94
2017-10-07T08:31:00.883Z,15.49
2017-10-07T08:33:28.647Z,16.30
2017-10-07T08:35:56.227Z,17.18
2017-10-07T08:38:23.852Z,17.35
2017-10-07T08:40:51.732Z,17.39
2017-10-07T08:43:19.344Z,17.94
2017-10-07T08:45:47.012Z,16.81
2017-10-07T08:48:14.730Z,16.46
2017-10-07T08:50:42.482Z,16.20
2017-10-07T08:53:10.086Z,16.61
2017-10-07T08:55:38.134Z,16.17
2017-10-07T08:58:05.884Z,15.84
2017-10-07T09:00:33.538Z,16.02
2017-10-07T09:03:01.301Z,15.60
2017-10-07T09:05:29.052Z,15.63
2017-10-07T09:07:56.670Z,16.03
2017-10-07T09:10:24.265Z,16.30
2017-10-07T09:12:51.988Z,17.01
2017-10-07T09:15:19.531Z,17.09
2017-10-07T09:17:47.269Z,16.38
2017-10-07T09:20:14.831Z,15.50
2017-10-07T09:22:42.396Z,17.47
2017-10-07T09:25:10.336Z,18.42
2017-10-07T09:27:37.853Z,20.88
2017-10-07T09:30:06.586Z,21.49
2017-10-07T09:32:34.367Z,19.97
2017-10-07T09:35:02.027Z,21.10
2017-10-07T09:37:29.773Z,20.23
2017-10-07T09:39:57.581Z,19.20
2017-10-07T09:42:26.279Z,18.86
2017-10-07T09:44:54.107Z,18.25
2017-10-07T09:47:21.870Z,18.45
2017-10-07T09:49:49.738Z,18.25
2017-10-07T09:52:17.464Z,18.02
2017-10-07T09:54:45.164Z,18.31
2017-10-07T09:57:12.824Z,18.04
2017-10-07T09:59:40.599Z,19.17
2017-10-07T10:02:08.492Z,21.15
2017-10-07T10:04:36.220Z,21.35
2017-10-07T10:07:03.879Z,22.44
2017-10-07T10:09:31.650Z,21.41
2017-10-07T10:11:59.205Z,23.38
2017-10-07T10:14:26.848Z,23.39
2017-10-07T10:16:54.934Z,21.41
2017-10-07T10:19:22.797Z,20.64
2017-10-07T10:21:50.360Z,19.69
2017-10-07T10:24:18.291Z,18.95
2017-10-07T10:26:45.888Z,21.87
2017-10-07T10:29:14.490Z,22.11
2017-10-07T10:31:42.235Z,20.35
2017-10-07T10:34:09.794Z,19.92
2017-10-07T10:36:37.378Z,23.65
2017-10-07T10:39:05.528Z,25.47
2017-10-07T10:41:33.190Z,26.67
2017-10-07T10:44:00.747Z,25.29
2017-10-07T10:46:28.813Z,25.36
2017-10-07T10:48:56.376Z,23.03
2017-10-07T10:51:23.938Z,21.62
2017-10-07T10:53:51.911Z,20.56
2017-10-07T10:56:19.550Z,20.59
2017-10-07T10:58:47.126Z,19.80
2017-10-07T11:01:14.825Z,19.29
2017-10-07T11:03:42.655Z,18.67
2017-10-07T11:06:10.226Z,18.67
2017-10-07T11:08:38.120Z,19.04
2017-10-07T11:11:05.636Z,18.84
2017-10-07T11:13:33.223Z,19.12
2017-10-07T11:16:01.376Z,20.77
2017-10-07T11:18:28.950Z,24.46
2017-10-07T11:20:56.473Z,25.22
2017-10-07T11:23:24.230Z,24.98
2017-10-07T11:25:51.739Z,24.90
2017-10-07T11:28:19.383Z,22.69
2017-10-07T11:30:47.182Z,20.84
2017-10-07T11:33:14.694Z,19.95
2017-10-07T11:35:42.326Z,19.13
2017-10-07T11:38:10.939Z,19.77
2017-10-07T11:40:38.602Z,23.07
2017-10-07T11:43:06.466Z,22.24
2017-10-07T11:45:34.257Z,23.65
2017-10-07T11:48:01.865Z,24.09
2017-10-07T11:50:29.630Z,24.98
2017-10-07T11:52:57.438Z,26.77
2017-10-07T11:55:25.049Z,27.77
2017-10-07T11:57:52.624Z,27.61
2017-10-07T12:00:20.416Z,26.79
2017-10-07T12:02:48.040Z,28.51
2017-10-07T12:05:16.219Z,29.81
2017-10-07T12:07:43.855Z,28.48
2017-10-07T12:10:11.561Z,25.23
2017-10-07T12:12:39.429Z,22.96
2017-10-07T12:15:07.192Z,21.62
2017-10-07T12:17:34.853Z,21.46
2017-10-07T12:20:02.515Z,21.75
2017-10-07T12:22:30.278Z,24.17
2017-10-07T12:24:57.807Z,25.64
2017-10-07T12:27:25.358Z,21.95
2017-10-07T12:29:53.062Z,20.91
2017-10-07T12:32:20.722Z,19.02
2017-10-07T12:34:48.394Z,18.43
2017-10-07T12:37:16.249Z,18.57
2017-10-07T12:39:43.918Z,18.38
2017-10-07T12:42:11.865Z,18.31
2017-10-07T12:44:39.745Z,17.97
2017-10-07T12:47:07.508Z,18.16
2017-10-07T12:49:35.044Z,18.26
2017-10-07T12:52:02.943Z,18.95
2017-10-07T12:54:30.699Z,18.25
2017-10-07T12:56:58.246Z,18.14
2017-10-07T12:59:26.226Z,17.76
2017-10-07T13:01:53.905Z,17.67
2017-10-07T13:04:21.468Z,17.65
2017-10-07T13:06:49.308Z,17.30
2017-10-07T13:09:16.927Z,16.65
2017-10-07T13:11:44.625Z,16.87
2017-10-07T13:14:12.219Z,17.04
2017-10-07T13:16:39.834Z,16.72
2017-10-07T13:19:07.518Z,16.60
2017-10-07T13:21:35.514Z,16.54
2017-10-07T13:24:03.046Z,16.99
2017-10-07T13:26:30.708Z,17.45
2017-10-07T13:28:58.572Z,17.29
2017-10-07T13:31:26.133Z,17.62
2017-10-07T13:33:53.756Z,17.10
2017-10-07T13:36:21.454Z,16.86
2017-10-07T13:38:49.014Z,17.15
2017-10-07T13:41:16.697Z,17.50
2017-10-07T13:43:44.440Z,17.36
2017-10-07T13:46:12.000Z,17.26
2017-10-07T13:48:39.557Z,17.59
2017-10-07T13:51:07.424Z,17.35
2017-10-07T13:53:35.069Z,16.80
2017-10-07T13:56:02.746Z,16.24
2017-10-07T13:58:30.464Z,16.57
2017-10-07T14:00:58.172Z,17.04
2017-10-07T14:03:26.894Z,16.67
2017-10-07T14:05:54.930Z,16.62
2017-10-07T14:08:22.888Z,16.53
2017-10-07T14:10:50.559Z,16.41
2017-10-07T14:13:19.273Z,16.83
2017-10-07T14:15:47.020Z,16.63
2017-10-07T14:18:14.876Z,16.47
2017-10-07T14:20:42.770Z,16.54
2017-10-07T14:23:10.508Z,16.56
2017-10-07T14:25:38.168Z,16.39
2017-10-07T14:28:06.034Z,16.28
2017-10-07T14:30:33.677Z,16.04
2017-10-07T14:33:01.220Z,16.11
2017-10-07T14:35:28.822Z,15.92
2017-10-07T14:37:56.339Z,16.03
2017-10-07T14:40:23.865Z,16.15
2017-10-07T14:42:51.783Z,15.48
2017-10-07T14:45:19.459Z,15.38
2017-10-07T14:47:47.017Z,15.41
2017-10-07T14:50:14.921Z,15.22
2017-10-07T14:52:42.479Z,15.80
2017-10-07T14:55:10.028Z,15.43
2017-10-07T14:57:38.903Z,15.49
2017-10-07T15:00:06.712Z,15.61
2017-10-07T15:02:34.330Z,15.16
2017-10-07T15:05:02.801Z,15.19
2017-10-07T15:07:30.357Z,15.27
2017-10-07T15:09:57.947Z,15.42
2017-10-07T15:12:25.681Z,15.37
2017-10-07T15:14:54.265Z,15.74
2017-10-07T15:17:21.925Z,15.78
2017-10-07T15:19:49.821Z,15.94
2017-10-07T15:22:17.455Z,15.82
2017-10-07T15:24:45.183Z,15.99
2017-10-07T15:27:13.301Z,15.65
2017-10-07T15:29:41.564Z,15.42
2017-10-07T15:32:09.178Z,15.34
2017-10-07T15:34:37.194Z,15.12
2017-10-07T15:37:04.756Z,15.38
2017-10-07T15:39:32.757Z,15.17
2017-10-07T15:42:00.948Z,15.05
2017-10-07T15:44:29.663Z,15.13
2017-10-07T15:46:57.508Z,14.85
2017-10-07T15:49:25.325Z,14.96
2017-10-07T15:51:52.873Z,15.17
2017-10-07T15:54:20.459Z,14.94
2017-10-07T15:56:48.306Z,15.09
2017-10-07T15:59:15.900Z,15.05
2017-10-07T16:01:43.784Z,14.70
2017-10-07T16:04:11.777Z,14.84
2017-10-07T16:06:39.295Z,14.78
2017-10-07T16:09:06.829Z,14.67
2017-10-07T16:11:34.774Z,14.54
2017-10-07T16:14:02.582Z,14.65
2017-10-07T16:16:30.213Z,14.54
2017-10-07T16:18:58.004Z,14.36
2017-10-07T16:21:25.545Z,14.43
2017-10-07T16:23:53.116Z,14.42
2017-10-07T16:26:21.059Z,14.43
2017-10-07T16:28:48.716Z,14.51
2017-10-07T16:31:16.501Z,13.90
2017-10-07T16:33:44.146Z,14.16
2017-10-07T16:36:11.737Z,14.19
2017-10-07T16:38:39.299Z,14.10
2017-10-07T16:41:08.345Z,13.89
2017-10-07T16:43:35.943Z,14.13
2017-10-07T16:46:03.455Z,14.02
2017-10-07T16:48:31.323Z,14.02
2017-10-07T16:50:59.105Z,13.88
2017-10-07T16:53:26.788Z,13.84
2017-10-07T16:55:54.633Z,13.77
2017-10-07T16:58:22.498Z,13.71
2017-10-07T17:00:50.161Z,13.72
2017-10-07T17:03:17.822Z,13.77
2017-10-07T17:05:45.474Z,13.98
2017-10-07T17:08:13.149Z,13.79
2017-10-07T17:10:41.034Z,13.67
2017-10-07T17:13:08.571Z,13.43
2017-10-07T17:15:36.137Z,13.42
2017-10-07T17:18:03.995Z,13.53
2017-10-07T17:20:31.866Z,13.40
2017-10-07T17:22:59.386Z,13.35
2017-10-07T17:25:27.296Z,13.41
2017-10-07T17:27:54.846Z,13.43
2017-10-07T17:30:22.393Z,13.44
2017-10-07T17:32:50.682Z,13.36
2017-10-07T17:35:18.255Z,13.80
2017-10-07T17:37:45.903Z,13.48
2017-10-07T17:40:13.783Z,13.69
2017-10-07T17:42:41.358Z,13.63
2017-10-07T17:45:09.399Z,13.81
2017-10-07T17:47:37.163Z,13.92
2017-10-07T17:50:04.822Z,13.85
2017-10-07T17:52:32.606Z,13.70
2017-10-07T17:55:01.304Z,13.71
2017-10-07T17:57:29.140Z,13.98
2017-10-07T17:59:56.904Z,13.60
2017-10-07T18:02:25.295Z,13.55
2017-10-07T18:04:53.158Z,13.61
2017-10-07T18:07:21.015Z,13.73
2017-10-07T18:09:48.880Z,13.80
2017-10-07T18:12:17.680Z,13.71
2017-10-07T18:14:45.561Z,13.69
2017-10-07T18:17:13.542Z,14.04
2017-10-07T18:19:41.202Z,13.96
2017-10-07T18:22:08.933Z,13.94
2017-10-07T18:24:36.796Z,14.12
2017-10-07T18:27:04.458Z,14.06
2017-10-07T18:29:32.425Z,14.12
2017-10-07T18:32:00.235Z,14.03
2017-10-07T18:34:27.872Z,13.87
2017-10-07T18:36:55.521Z,13.84
2017-10-07T18:39:23.672Z,13.77
2017-10-07T18:41:51.764Z,13.78
2017-10-07T18:44:19.534Z,13.89
2017-10-07T18:46:47.858Z,14.02
2017-10-07T18:49:15.561Z,13.59
2017-10-07T18:51:43.428Z,13.61
2017-10-07T18:54:11.191Z,13.58
2017-10-07T18:56:38.853Z,13.42
2017-10-07T18:59:06.440Z,13.56
2017-10-07T19:01:34.184Z,13.92
2017-10-07T19:04:01.736Z,14.01
2017-10-07T19:06:29.294Z,13.88
2017-10-07T19:08:57.184Z,13.89
2017-10-07T19:11:25.027Z,13.82
2017-10-07T19:13:53.507Z,14.01
2017-10-07T19:16:21.580Z,13.64
2017-10-07T19:18:49.180Z,13.71
2017-10-07T19:21:16.917Z,14.08
2017-10-07T19:23:44.774Z,14.31
2017-10-07T19:26:12.531Z,14.57
2017-10-07T19:28:40.149Z,14.68
2017-10-07T19:31:08.162Z,14.44
2017-10-07T19:33:35.825Z,14.32
2017-10-07T19:36:03.499Z,13.95
2017-10-07T19:38:31.311Z,13.40
2017-10-07T19:40:58.905Z,13.57
2017-10-07T19:43:26.675Z,13.43
2017-10-07T19:45:54.541Z,13.27
2017-10-07T19:48:22.980Z,12.68
2017-10-07T19:50:50.637Z,12.73
2017-10-07T19:53:18.661Z,12.60
2017-10-07T19:55:46.551Z,12.81
2017-10-07T19:58:14.185Z,12.72
2017-10-07T20:00:41.794Z,12.58
2017-10-07T20:03:09.606Z,12.40
2017-10-07T20:05:37.196Z,12.49
2017-10-07T20:08:05.018Z,12.43
2017-10-07T20:10:32.530Z,12.43
2017-10-07T20:13:00.456Z,12.50
2017-10-07T20:15:28.225Z,12.33
2017-10-07T20:17:55.807Z,12.45
2017-10-07T20:20:23.543Z,12.64
2017-10-07T20:22:51.203Z,12.56
2017-10-07T20:25:18.777Z,12.62
2017-10-07T20:27:46.362Z,12.93
2017-10-07T20:30:14.313Z,12.67
2017-10-07T20:32:41.862Z,13.03
2017-10-07T20:35:10.331Z,13.31
2017-10-07T20:37:38.094Z,13.38
2017-10-07T20:40:05.654Z,13.20
2017-10-07T20:42:33.244Z,13.06
2017-10-07T20:45:01.387Z,13.08
2017-10-07T20:47:29.110Z,13.22
2017-10-07T20:49:56.641Z,13.25
2017-10-07T20:52:24.678Z,13.27
2017-10-07T20:54:52.236Z,13.18
2017-10-07T20:57:19.900Z,13.23
2017-10-07T20:59:47.814Z,13.31
2017-10-07T21:02:15.330Z,13.18
2017-10-07T21:04:42.883Z,12.96
2017-10-07T21:07:10.852Z,12.64
2017-10-07T21:09:38.412Z,12.63
2017-10-07T21:12:05.971Z,12.43
2017-10-07T21:14:33.701Z,12.71
2017-10-07T21:17:01.280Z,12.54
2017-10-07T21:19:29.074Z,12.56
2017-10-07T21:21:56.853Z,12.66
2017-10-07T21:24:24.482Z,12.45
2017-10-07T21:26:52.225Z,12.61
2017-10-07T21:29:19.765Z,12.77
2017-10-07T21:31:47.287Z,12.79
2017-10-07T21:34:14.821Z,12.80
2017-10-07T21:36:42.557Z,12.74
2017-10-07T21:39:10.231Z,12.75
2017-10-07T21:41:37.753Z,12.54
2017-10-07T21:44:05.570Z,12.67
2017-10-07T21:46:33.086Z,12.39
2017-10-07T21:49:00.603Z,12.80
2017-10-07T21:51:28.248Z,12.64
2017-10-07T21:53:55.767Z,12.69
2017-10-07T21:56:23.282Z,12.42
2017-10-07T21:58:51.005Z,12.57
2017-10-07T22:01:18.530Z,12.61
2017-10-07T22:03:46.042Z,12.29
2017-10-07T22:06:13.729Z,12.20
2017-10-07T22:08:41.294Z,12.53
2017-10-07T22:11:08.831Z,12.37
2017-10-07T22:13:36.602Z,12.56
2017-10-07T22:16:04.157Z,12.89
2017-10-07T22:18:31.705Z,13.18
2017-10-07T22:20:59.263Z,12.91
2017-10-07T22:23:26.774Z,13.13
2017-10-07T22:25:55.203Z,13.25
2017-10-07T22:28:22.782Z,13.35
2017-10-07T22:30:50.331Z,13.39
2017-10-07T22:33:17.880Z,13.32
2017-10-07T22:35:45.662Z,13.13
2017-10-07T22:38:13.208Z,13.22
2017-10-07T22:40:40.724Z,13.43
2017-10-07T22:43:08.415Z,13.35
2017-10-07T22:45:35.930Z,13.53
2017-10-07T22:48:03.451Z,13.40
2017-10-07T22:50:31.386Z,13.39
2017-10-07T22:52:58.998Z,13.37
2017-10-07T22:55:26.576Z,13.33
2017-10-07T22:57:54.289Z,13.49
2017-10-07T23:00:21.798Z,13.69
2017-10-07T23:02:49.324Z,13.69
2017-10-07T23:05:16.870Z,13.53
2017-10-07T23:07:44.383Z,13.53
2017-10-07T23:10:11.898Z,13.46
2017-10-07T23:12:39.450Z,13.57
2017-10-07T23:15:06.977Z,13.52
2017-10-07T23:17:34.559Z,13.64
2017-10-07T23:20:02.506Z,13.40
2017-10-07T23:22:33.971Z,12.71
2017-10-07T23:25:01.535Z,13.05
2017-10-07T23:27:29.093Z,12.67
2017-10-07T23:29:56.608Z,12.18
2017-10-07T23:32:24.519Z,12.12
2017-10-07T23:34:52.074Z,11.99
2017-10-07T23:37:19.583Z,12.27
2017-10-07T23:39:47.502Z,11.84
2017-10-07T23:42:15.078Z,12.08
2017-10-07T23:44:42.622Z,12.01
2017-10-07T23:47:10.214Z,12.00
2017-10-07T23:49:37.739Z,11.91
2017-10-07T23:52:05.251Z,11.74
2017-10-07T23:54:33.062Z,11.88
2017-10-07T23:57:00.570Z,11.93
2017-10-07T23:59:28.086Z,11.88
